createdAt,value
2018-07-22T00:00:11.972Z,20.75
2018-07-22T00:02:41.400Z,20.72
2018-07-22T00:05:10.464Z,20.70
2018-07-22T00:07:39.763Z,20.68
2018-07-22T00:10:26.539Z,20.68
2018-07-22T00:12:55.584Z,20.62
2018-07-22T00:15:24.596Z,20.54
2018-07-22T00:17:53.635Z,20.47
2018-07-22T00:20:22.692Z,20.41
2018-07-22T00:22:51.745Z,20.37
2018-07-22T00:25:20.804Z,20.38
2018-07-22T00:27:49.884Z,20.39
2018-07-22T00:30:18.877Z,20.37
2018-07-22T00:32:47.869Z,20.36
2018-07-22T00:35:16.881Z,20.37
2018-07-22T00:37:45.847Z,20.37
2018-07-22T00:40:14.835Z,20.38
2018-07-22T00:42:43.877Z,20.38
2018-07-22T00:45:14.864Z,20.32
2018-07-22T00:47:43.851Z,20.31
2018-07-22T00:50:12.849Z,20.24
2018-07-22T00:52:41.868Z,20.13
2018-07-22T00:55:10.831Z,20.03
2018-07-22T00:57:39.808Z,20.01
2018-07-22T01:00:09.354Z,19.96
2018-07-22T01:02:38.341Z,19.95
2018-07-22T01:05:07.472Z,19.93
2018-07-22T01:07:36.466Z,19.87
2018-07-22T01:10:05.599Z,19.80
2018-07-22T01:12:34.613Z,19.81
2018-07-22T01:15:03.781Z,19.80
2018-07-22T01:17:32.788Z,19.81
2018-07-22T01:20:01.787Z,19.82
2018-07-22T01:22:30.768Z,19.80
2018-07-22T01:24:59.810Z,19.85
2018-07-22T01:27:28.850Z,19.84
2018-07-22T01:29:57.895Z,19.89
2018-07-22T01:32:26.900Z,19.81
2018-07-22T01:34:55.860Z,19.82
2018-07-22T01:37:24.905Z,19.71
2018-07-22T01:39:53.933Z,19.64
2018-07-22T01:42:23.001Z,19.59
2018-07-22T01:44:52.025Z,19.52
2018-07-22T01:47:21.129Z,19.50
2018-07-22T01:49:50.219Z,19.46
2018-07-22T01:52:19.236Z,19.45
2018-07-22T01:54:48.271Z,19.43
2018-07-22T01:57:17.292Z,19.39
2018-07-22T01:59:46.337Z,19.43
2018-07-22T02:02:15.353Z,19.42
2018-07-22T02:04:44.392Z,19.36
2018-07-22T02:07:13.413Z,19.39
2018-07-22T02:09:42.465Z,19.40
2018-07-22T02:12:11.436Z,19.40
2018-07-22T02:14:40.391Z,19.41
2018-07-22T02:17:09.390Z,19.41
2018-07-22T02:19:38.379Z,19.44
2018-07-22T02:22:07.441Z,19.46
2018-07-22T02:24:36.402Z,19.47
2018-07-22T02:27:05.445Z,19.49
2018-07-22T02:29:34.399Z,19.48
2018-07-22T02:32:03.427Z,19.48
2018-07-22T02:34:32.399Z,19.50
2018-07-22T02:37:01.474Z,19.45
2018-07-22T02:39:30.444Z,19.40
2018-07-22T02:41:59.539Z,19.40
2018-07-22T02:44:28.512Z,19.36
2018-07-22T02:46:57.463Z,19.27
2018-07-22T02:49:26.510Z,19.26
2018-07-22T02:51:55.496Z,19.27
2018-07-22T02:54:24.492Z,19.23
2018-07-22T02:56:53.464Z,19.17
2018-07-22T02:59:22.503Z,19.16
2018-07-22T03:01:51.557Z,19.14
2018-07-22T03:04:20.532Z,19.13
2018-07-22T03:06:49.592Z,19.14
2018-07-22T03:09:18.629Z,19.17
2018-07-22T03:11:47.616Z,19.16
2018-07-22T03:14:16.597Z,19.19
2018-07-22T03:16:45.636Z,19.14
2018-07-22T03:19:14.591Z,19.10
2018-07-22T03:21:43.688Z,19.10
2018-07-22T03:24:12.672Z,19.11
2018-07-22T03:26:41.645Z,19.07
2018-07-22T03:29:10.682Z,19.11
2018-07-22T03:31:39.656Z,19.12
2018-07-22T03:34:08.929Z,19.17
2018-07-22T03:36:37.891Z,19.18
2018-07-22T03:39:09.291Z,19.16
2018-07-22T03:41:38.333Z,19.18
2018-07-22T03:44:07.544Z,19.23
2018-07-22T03:46:36.572Z,19.29
2018-07-22T03:49:05.757Z,19.33
2018-07-22T03:51:34.725Z,19.40
2018-07-22T03:54:03.715Z,19.43
2018-07-22T03:56:32.714Z,19.48
2018-07-22T03:59:01.696Z,19.54
2018-07-22T04:01:30.788Z,19.62
2018-07-22T04:03:59.854Z,19.69
2018-07-22T04:06:28.856Z,19.72
2018-07-22T04:08:57.827Z,19.72
2018-07-22T04:11:26.865Z,19.74
2018-07-22T04:13:55.867Z,19.75
2018-07-22T04:16:24.852Z,19.80
2018-07-22T04:18:54.611Z,19.82
2018-07-22T04:21:24.646Z,19.82
2018-07-22T04:23:53.644Z,19.86
2018-07-22T04:26:22.944Z,19.94
2018-07-22T04:28:52.384Z,20.07
2018-07-22T04:31:21.564Z,20.17
2018-07-22T04:33:50.785Z,20.26
2018-07-22T04:36:19.833Z,20.37
2018-07-22T04:38:48.900Z,20.44
2018-07-22T04:41:17.936Z,20.57
2018-07-22T04:43:46.892Z,20.66
2018-07-22T04:46:15.994Z,20.72
2018-07-22T04:48:44.944Z,20.74
2018-07-22T04:51:14.065Z,20.78
2018-07-22T04:53:43.032Z,20.86
2018-07-22T04:56:12.009Z,20.95
2018-07-22T04:58:41.066Z,20.98
2018-07-22T05:01:10.112Z,21.07
2018-07-22T05:03:39.112Z,21.20
2018-07-22T05:06:08.091Z,21.32
2018-07-22T05:08:37.068Z,21.37
2018-07-22T05:11:06.173Z,21.46
2018-07-22T05:13:35.220Z,21.58
2018-07-22T05:16:04.253Z,21.72
2018-07-22T05:18:33.276Z,21.85
2018-07-22T05:21:02.347Z,21.92
2018-07-22T05:23:31.321Z,21.95
2018-07-22T05:26:00.304Z,22.08
2018-07-22T05:28:29.349Z,22.24
2018-07-22T05:30:58.335Z,22.39
2018-07-22T05:33:27.333Z,22.55
2018-07-22T05:35:56.455Z,22.71
2018-07-22T05:38:25.501Z,22.89
2018-07-22T05:40:54.473Z,23.07
2018-07-22T05:43:23.568Z,23.23
2018-07-22T05:45:52.617Z,23.38
2018-07-22T05:48:21.681Z,23.54
2018-07-22T05:50:50.724Z,23.69
2018-07-22T05:53:19.704Z,23.84
2018-07-22T05:55:48.728Z,23.96
2018-07-22T05:58:17.820Z,24.14
2018-07-22T06:00:46.916Z,24.28
2018-07-22T06:03:15.899Z,24.40
2018-07-22T06:05:44.916Z,24.49
2018-07-22T06:08:13.893Z,24.61
2018-07-22T06:10:42.891Z,24.78
2018-07-22T06:13:11.933Z,24.91
2018-07-22T06:15:40.907Z,25.11
2018-07-22T06:18:09.986Z,25.26
2018-07-22T06:20:39.192Z,25.45
2018-07-22T06:23:08.195Z,25.53
2018-07-22T06:25:37.171Z,25.64
2018-07-22T06:28:06.433Z,25.85
2018-07-22T06:30:35.480Z,26.10
2018-07-22T06:33:04.533Z,26.35
2018-07-22T06:35:33.572Z,26.53
2018-07-22T06:38:02.561Z,26.67
2018-07-22T06:40:32.472Z,26.86
2018-07-22T06:43:01.577Z,27.05
2018-07-22T06:45:30.564Z,27.29
2018-07-22T06:47:59.721Z,27.50
2018-07-22T06:50:28.741Z,27.62
2018-07-22T06:52:57.759Z,27.79
2018-07-22T06:55:26.845Z,28.00
2018-07-22T06:57:55.810Z,28.15
2018-07-22T07:00:24.899Z,28.32
2018-07-22T07:02:53.872Z,28.57
2018-07-22T07:05:23.045Z,28.78
2018-07-22T07:07:52.051Z,29.00
2018-07-22T07:10:21.063Z,29.36
2018-07-22T07:12:50.109Z,29.49
2018-07-22T07:15:19.096Z,29.67
2018-07-22T07:17:48.083Z,29.97
2018-07-22T07:20:17.217Z,30.18
2018-07-22T07:22:46.207Z,30.51
2018-07-22T07:25:15.277Z,30.56
2018-07-22T07:27:44.384Z,30.82
2018-07-22T07:30:13.376Z,31.11
2018-07-22T07:32:42.347Z,31.31
2018-07-22T07:35:11.343Z,31.32
2018-07-22T07:37:40.323Z,31.59
2018-07-22T07:40:09.369Z,31.65
2018-07-22T07:42:38.407Z,31.89
2018-07-22T07:45:07.555Z,32.12
2018-07-22T07:47:36.527Z,32.39
2018-07-22T07:50:05.975Z,32.64
2018-07-22T07:52:35.000Z,32.94
2018-07-22T07:55:04.083Z,33.11
2018-07-22T07:57:33.182Z,33.11
2018-07-22T08:00:02.244Z,33.08
2018-07-22T08:02:31.348Z,32.86
2018-07-22T08:05:00.404Z,32.79
2018-07-22T08:07:29.476Z,32.80
2018-07-22T08:09:58.511Z,32.92
2018-07-22T08:12:27.697Z,33.13
2018-07-22T08:14:56.938Z,33.38
2018-07-22T08:17:26.095Z,33.51
2018-07-22T08:19:55.236Z,33.64
2018-07-22T08:22:24.416Z,33.84
2018-07-22T08:24:53.469Z,33.97
2018-07-22T08:27:22.449Z,33.94
2018-07-22T08:29:51.447Z,34.21
2018-07-22T08:32:20.416Z,34.21
2018-07-22T08:34:49.493Z,34.02
2018-07-22T08:37:18.487Z,34.11
2018-07-22T08:39:47.515Z,34.28
2018-07-22T08:42:16.598Z,34.50
2018-07-22T08:44:45.653Z,34.79
2018-07-22T08:47:14.712Z,35.06
2018-07-22T08:49:43.740Z,34.88
2018-07-22T08:52:12.820Z,35.27
2018-07-22T08:54:41.782Z,35.33
2018-07-22T08:57:10.776Z,35.37
2018-07-22T08:59:40.900Z,35.47
2018-07-22T09:02:10.105Z,35.78
2018-07-22T09:04:39.142Z,35.98
2018-07-22T09:07:08.192Z,36.25
2018-07-22T09:09:37.242Z,36.43
2018-07-22T09:12:06.227Z,36.53
2018-07-22T09:14:35.220Z,36.51
2018-07-22T09:17:04.218Z,36.02
2018-07-22T09:19:33.199Z,35.84
2018-07-22T09:22:02.179Z,35.64
2018-07-22T09:24:31.184Z,35.25
2018-07-22T09:27:00.257Z,35.34
2018-07-22T09:29:29.292Z,35.78
2018-07-22T09:31:58.403Z,35.91
2018-07-22T09:34:27.484Z,35.91
2018-07-22T09:36:56.764Z,35.72
2018-07-22T09:39:25.751Z,35.44
2018-07-22T09:41:56.178Z,35.56
2018-07-22T09:44:25.170Z,35.53
2018-07-22T09:46:54.201Z,35.51
2018-07-22T09:49:23.199Z,35.82
2018-07-22T09:51:52.197Z,36.03
2018-07-22T09:54:21.320Z,36.38
2018-07-22T09:56:50.296Z,36.28
2018-07-22T09:59:19.438Z,35.71
2018-07-22T10:01:48.451Z,35.35
2018-07-22T10:04:17.519Z,35.08
2018-07-22T10:06:46.562Z,35.41
2018-07-22T10:09:15.597Z,35.79
2018-07-22T10:11:44.737Z,36.17
2018-07-22T10:14:13.724Z,36.52
2018-07-22T10:16:42.823Z,36.08
2018-07-22T10:19:11.807Z,35.68
2018-07-22T10:21:40.917Z,35.48
2018-07-22T10:24:10.541Z,35.30
2018-07-22T10:26:39.504Z,35.42
2018-07-22T10:29:08.619Z,35.84
2018-07-22T10:31:37.571Z,35.83
2018-07-22T10:34:06.732Z,35.94
2018-07-22T10:36:35.784Z,35.63
2018-07-22T10:39:06.872Z,35.57
2018-07-22T10:41:36.913Z,35.52
2018-07-22T10:44:06.092Z,35.60
2018-07-22T10:46:35.092Z,35.64
2018-07-22T10:49:04.192Z,35.58
2018-07-22T10:51:34.124Z,35.54
2018-07-22T10:54:03.155Z,35.41
2018-07-22T10:56:32.340Z,35.15
2018-07-22T10:59:01.317Z,34.53
2018-07-22T11:01:30.325Z,34.75
2018-07-22T11:03:59.327Z,34.86
2018-07-22T11:06:28.427Z,35.10
2018-07-22T11:08:57.477Z,35.33
2018-07-22T11:11:26.776Z,35.70
2018-07-22T11:13:55.848Z,35.99
2018-07-22T11:16:24.831Z,36.07
2018-07-22T11:18:53.864Z,35.71
2018-07-22T11:21:23.058Z,35.51
2018-07-22T11:23:52.624Z,35.38
2018-07-22T11:26:21.604Z,35.36
2018-07-22T11:28:50.739Z,35.10
2018-07-22T11:31:19.824Z,35.12
2018-07-22T11:33:48.793Z,35.27
2018-07-22T11:36:17.824Z,35.40
2018-07-22T11:38:46.799Z,35.56
2018-07-22T11:41:15.776Z,35.78
2018-07-22T11:43:44.833Z,35.78
2018-07-22T11:46:13.824Z,35.83
2018-07-22T11:48:42.820Z,35.88
2018-07-22T11:51:11.825Z,35.93
2018-07-22T11:53:41.363Z,35.99
2018-07-22T11:56:10.364Z,36.14
2018-07-22T11:58:39.322Z,36.24
2018-07-22T12:01:08.452Z,36.27
2018-07-22T12:03:38.008Z,36.08
2018-07-22T12:06:07.058Z,35.99
2018-07-22T12:08:36.157Z,35.92
2018-07-22T12:11:05.204Z,35.84
2018-07-22T12:13:34.175Z,35.60
2018-07-22T12:16:03.143Z,35.63
2018-07-22T12:18:32.253Z,35.76
2018-07-22T12:21:01.233Z,35.85
2018-07-22T12:23:30.289Z,36.04
2018-07-22T12:25:59.329Z,36.19
2018-07-22T12:28:28.513Z,36.34
2018-07-22T12:30:57.617Z,36.33
2018-07-22T12:33:26.784Z,36.31
2018-07-22T12:35:55.759Z,36.23
2018-07-22T12:38:24.802Z,36.21
2018-07-22T12:40:53.784Z,36.29
2018-07-22T12:43:22.830Z,36.39
2018-07-22T12:45:51.856Z,36.12
2018-07-22T12:48:20.900Z,36.13
2018-07-22T12:50:50.076Z,36.28
2018-07-22T12:53:19.084Z,36.39
2018-07-22T12:55:48.067Z,36.47
2018-07-22T12:58:17.116Z,36.49
2018-07-22T13:00:46.097Z,36.51
2018-07-22T13:03:15.203Z,36.34
2018-07-22T13:05:44.228Z,36.43
2018-07-22T13:08:13.203Z,36.56
2018-07-22T13:10:42.231Z,35.92
2018-07-22T13:13:11.248Z,35.44
2018-07-22T13:15:40.240Z,35.53
2018-07-22T13:18:09.289Z,35.59
2018-07-22T13:20:38.610Z,35.61
2018-07-22T13:23:08.197Z,35.62
2018-07-22T13:25:37.255Z,35.66
2018-07-22T13:28:06.351Z,35.56
2018-07-22T13:30:35.386Z,35.63
2018-07-22T13:33:04.390Z,35.69
2018-07-22T13:35:33.448Z,35.74
2018-07-22T13:38:02.647Z,35.72
2018-07-22T13:40:31.722Z,35.74
2018-07-22T13:43:00.737Z,35.64
2018-07-22T13:45:29.788Z,35.52
2018-07-22T13:47:58.784Z,35.47
2018-07-22T13:50:27.853Z,35.50
2018-07-22T13:52:56.884Z,35.55
2018-07-22T13:55:25.998Z,35.55
2018-07-22T13:57:55.157Z,35.45
2018-07-22T14:00:24.154Z,35.49
2018-07-22T14:02:53.159Z,35.62
2018-07-22T14:05:22.209Z,35.48
2018-07-22T14:07:51.277Z,35.35
2018-07-22T14:10:20.248Z,35.26
2018-07-22T14:12:49.335Z,35.22
2018-07-22T14:15:18.372Z,35.30
2018-07-22T14:17:47.555Z,35.41
2018-07-22T14:20:16.544Z,35.37
2018-07-22T14:22:45.788Z,35.43
2018-07-22T14:25:14.848Z,35.33
2018-07-22T14:27:44.011Z,35.32
2018-07-22T14:30:13.234Z,35.07
2018-07-22T14:32:42.283Z,34.83
2018-07-22T14:35:11.364Z,34.89
2018-07-22T14:37:40.475Z,35.06
2018-07-22T14:40:09.448Z,35.21
2018-07-22T14:42:38.546Z,35.19
2018-07-22T14:45:08.463Z,35.06
2018-07-22T14:47:37.561Z,34.81
2018-07-22T14:50:06.872Z,34.87
2018-07-22T14:52:35.957Z,34.91
2018-07-22T14:55:05.113Z,34.70
2018-07-22T14:57:34.360Z,34.40
2018-07-22T15:00:03.393Z,34.13
2018-07-22T15:02:32.520Z,34.02
2018-07-22T15:05:01.653Z,34.11
2018-07-22T15:07:30.694Z,34.13
2018-07-22T15:09:59.657Z,33.93
2018-07-22T15:12:28.679Z,33.66
2018-07-22T15:14:57.680Z,33.21
2018-07-22T15:17:26.667Z,32.96
2018-07-22T15:19:55.701Z,32.79
2018-07-22T15:22:24.817Z,32.41
2018-07-22T15:24:53.799Z,32.20
2018-07-22T15:27:22.772Z,32.01
2018-07-22T15:29:51.752Z,31.81
2018-07-22T15:32:20.736Z,31.66
2018-07-22T15:34:49.716Z,31.52
2018-07-22T15:37:18.704Z,31.43
2018-07-22T15:39:47.753Z,31.34
2018-07-22T15:42:16.910Z,31.28
2018-07-22T15:44:45.890Z,31.21
2018-07-22T15:47:14.880Z,31.11
2018-07-22T15:49:43.871Z,30.97
2018-07-22T15:52:13.012Z,30.80
2018-07-22T15:54:41.998Z,30.56
2018-07-22T15:57:11.064Z,30.25
2018-07-22T15:59:40.035Z,29.88
2018-07-22T16:02:09.032Z,29.46
2018-07-22T16:04:38.096Z,29.15
2018-07-22T16:07:07.099Z,28.89
2018-07-22T16:09:36.096Z,28.62
2018-07-22T16:12:05.200Z,28.47
2018-07-22T16:14:34.246Z,28.49
2018-07-22T16:17:03.204Z,28.36
2018-07-22T16:19:32.244Z,28.20
2018-07-22T16:22:01.323Z,28.18
2018-07-22T16:24:30.333Z,28.21
2018-07-22T16:26:59.416Z,27.83
2018-07-22T16:29:28.384Z,27.66
2018-07-22T16:31:57.387Z,27.60
2018-07-22T16:34:26.424Z,27.55
2018-07-22T16:36:55.404Z,27.57
2018-07-22T16:39:24.387Z,27.60
2018-07-22T16:41:53.413Z,27.50
2018-07-22T16:44:22.633Z,27.51
2018-07-22T16:46:51.615Z,27.51
2018-07-22T16:49:20.689Z,27.56
2018-07-22T16:51:49.768Z,27.64
2018-07-22T16:54:18.761Z,27.62
2018-07-22T16:56:47.744Z,27.66
2018-07-22T16:59:16.772Z,27.57
2018-07-22T17:01:45.888Z,27.46
2018-07-22T17:04:14.876Z,27.30
2018-07-22T17:06:43.868Z,27.08
2018-07-22T17:09:12.912Z,26.79
2018-07-22T17:11:41.944Z,26.55
2018-07-22T17:14:11.063Z,26.16
2018-07-22T17:16:40.253Z,25.95
2018-07-22T17:19:09.363Z,25.84
2018-07-22T17:21:38.333Z,25.83
2018-07-22T17:24:07.637Z,25.84
2018-07-22T17:26:36.627Z,25.90
2018-07-22T17:29:05.668Z,25.87
2018-07-22T17:31:34.668Z,25.94
2018-07-22T17:34:03.940Z,25.96
2018-07-22T17:36:33.036Z,25.92
2018-07-22T17:39:02.094Z,25.85
2018-07-22T17:41:31.201Z,25.75
2018-07-22T17:44:00.188Z,25.63
2018-07-22T17:46:29.152Z,25.51
2018-07-22T17:48:58.188Z,25.41
2018-07-22T17:51:27.295Z,25.23
2018-07-22T17:53:56.276Z,25.09
2018-07-22T17:56:25.328Z,24.95
2018-07-22T17:58:54.401Z,24.81
2018-07-22T18:01:23.563Z,24.65
2018-07-22T18:03:52.552Z,24.44
2018-07-22T18:06:21.665Z,24.34
2018-07-22T18:08:50.623Z,24.26
2018-07-22T18:11:19.616Z,24.10
2018-07-22T18:13:48.635Z,24.08
2018-07-22T18:16:17.655Z,24.10
2018-07-22T18:18:46.688Z,24.09
2018-07-22T18:21:15.797Z,24.09
2018-07-22T18:23:44.820Z,24.06
2018-07-22T18:26:13.840Z,24.01
2018-07-22T18:28:44.531Z,24.00
2018-07-22T18:31:13.564Z,23.85
2018-07-22T18:33:42.589Z,23.81
2018-07-22T18:36:11.603Z,23.79
2018-07-22T18:38:40.591Z,23.74
2018-07-22T18:41:09.712Z,23.73
2018-07-22T18:43:38.821Z,23.69
2018-07-22T18:46:08.076Z,23.71
2018-07-22T18:48:37.183Z,23.68
2018-07-22T18:51:06.125Z,23.60
2018-07-22T18:53:35.152Z,23.50
2018-07-22T18:56:04.244Z,23.37
2018-07-22T18:58:33.291Z,23.21
2018-07-22T19:01:02.289Z,23.17
2018-07-22T19:03:31.260Z,23.14
2018-07-22T19:06:00.275Z,23.07
2018-07-22T19:08:29.332Z,23.00
2018-07-22T19:10:58.319Z,22.95
2018-07-22T19:13:27.290Z,22.92
2018-07-22T19:15:56.359Z,22.89
2018-07-22T19:18:25.330Z,22.77
2018-07-22T19:20:54.317Z,22.69
2018-07-22T19:23:23.329Z,22.65
2018-07-22T19:25:52.419Z,22.65
2018-07-22T19:28:21.456Z,22.66
2018-07-22T19:30:50.496Z,22.66
2018-07-22T19:33:19.596Z,22.64
2018-07-22T19:35:48.720Z,22.64
2018-07-22T19:38:17.687Z,22.63
2018-07-22T19:40:46.668Z,22.59
2018-07-22T19:43:15.624Z,22.58
2018-07-22T19:45:44.596Z,22.59
2018-07-22T19:48:13.717Z,22.53
2018-07-22T19:50:42.813Z,22.49
2018-07-22T19:53:11.788Z,22.43
2018-07-22T19:55:40.880Z,22.40
2018-07-22T19:58:09.928Z,22.38
2018-07-22T20:00:38.962Z,22.34
2018-07-22T20:03:08.369Z,22.34
2018-07-22T20:05:37.476Z,22.35
2018-07-22T20:08:06.963Z,22.38
2018-07-22T20:10:35.984Z,22.38
2018-07-22T20:13:05.068Z,22.33
2018-07-22T20:15:34.092Z,22.33
2018-07-22T20:18:03.067Z,22.33
2018-07-22T20:20:32.071Z,22.28
2018-07-22T20:23:01.164Z,22.24
2018-07-22T20:25:30.199Z,22.19
2018-07-22T20:27:59.185Z,22.16
2018-07-22T20:30:28.240Z,22.10
2018-07-22T20:32:57.334Z,22.06
2018-07-22T20:35:26.291Z,22.05
2018-07-22T20:37:55.272Z,21.97
2018-07-22T20:40:24.300Z,21.99
2018-07-22T20:42:53.555Z,21.97
2018-07-22T20:45:22.524Z,21.95
2018-07-22T20:47:51.488Z,21.87
2018-07-22T20:50:20.528Z,21.80
2018-07-22T20:52:49.564Z,21.80
2018-07-22T20:55:18.604Z,21.76
2018-07-22T20:57:47.595Z,21.76
2018-07-22T21:00:16.632Z,21.73
2018-07-22T21:02:45.660Z,21.67
2018-07-22T21:05:14.639Z,21.61
2018-07-22T21:07:43.644Z,21.59
2018-07-22T21:10:12.645Z,21.57
2018-07-22T21:12:53.736Z,21.55
2018-07-22T21:15:22.855Z,21.59
2018-07-22T21:17:52.504Z,21.53
2018-07-22T21:20:22.235Z,21.51
2018-07-22T21:22:51.259Z,21.48
2018-07-22T21:25:20.612Z,21.47
2018-07-22T21:27:49.555Z,21.46
2018-07-22T21:30:18.620Z,21.48
2018-07-22T21:32:47.639Z,21.51
2018-07-22T21:35:16.612Z,21.58
2018-07-22T21:37:45.660Z,21.62
2018-07-22T21:40:14.846Z,21.57
2018-07-22T21:42:43.891Z,21.57
2018-07-22T21:45:12.929Z,21.53
2018-07-22T21:47:42.025Z,21.48
2018-07-22T21:50:10.992Z,21.52
2018-07-22T21:52:40.017Z,21.54
2018-07-22T21:55:09.092Z,21.56
2018-07-22T21:57:38.444Z,21.61
2018-07-22T22:00:12.905Z,21.62
2018-07-22T22:02:41.888Z,21.65
2018-07-22T22:05:10.844Z,21.65
2018-07-22T22:07:39.839Z,21.66
2018-07-22T22:10:08.907Z,21.64
2018-07-22T22:12:37.905Z,21.66
2018-07-22T22:15:11.369Z,21.66
2018-07-22T22:17:40.434Z,21.61
2018-07-22T22:20:09.455Z,21.52
2018-07-22T22:22:38.447Z,21.41
2018-07-22T22:25:07.522Z,21.38
2018-07-22T22:27:36.569Z,21.59
2018-07-22T22:30:06.141Z,21.66
2018-07-22T22:32:35.139Z,21.69
2018-07-22T22:35:04.350Z,21.71
2018-07-22T22:37:33.388Z,21.74
2018-07-22T22:40:02.461Z,21.77
2018-07-22T22:42:31.440Z,21.78
2018-07-22T22:45:00.463Z,21.82
2018-07-22T22:47:29.529Z,21.89
2018-07-22T22:49:58.487Z,21.97
2018-07-22T22:52:27.616Z,22.05
2018-07-22T22:54:56.796Z,22.08
2018-07-22T22:57:26.109Z,22.07
2018-07-22T22:59:55.101Z,22.10
2018-07-22T23:02:24.247Z,22.16
2018-07-22T23:04:53.311Z,22.18
2018-07-22T23:07:22.280Z,22.17
2018-07-22T23:09:51.365Z,22.11
2018-07-22T23:12:20.412Z,22.08
2018-07-22T23:14:49.379Z,22.01
2018-07-22T23:17:18.372Z,21.90
2018-07-22T23:19:47.404Z,21.76
2018-07-22T23:22:16.478Z,21.53
2018-07-22T23:24:45.480Z,21.37
2018-07-22T23:27:14.484Z,21.25
2018-07-22T23:29:43.448Z,21.19
2018-07-22T23:32:12.772Z,21.06
2018-07-22T23:34:41.809Z,20.91
2018-07-22T23:37:10.792Z,20.77
2018-07-22T23:39:39.837Z,20.67
2018-07-22T23:42:09.380Z,20.63
2018-07-22T23:44:38.360Z,20.56
2018-07-22T23:47:07.436Z,20.52
2018-07-22T23:49:36.515Z,20.47
2018-07-22T23:52:05.589Z,20.43
2018-07-22T23:54:34.576Z,20.36
2018-07-22T23:57:03.586Z,20.26
2018-07-22T23:59:32.629Z,20.18
